createdAt,value
2018-07-07T00:57:05.960Z,15.67
2018-07-07T00:59:35.189Z,15.50
2018-07-07T01:02:06.810Z,16.07
2018-07-07T01:04:36.482Z,15.13
2018-07-07T01:07:05.326Z,14.93
2018-07-07T01:09:34.364Z,16.13
2018-07-07T01:12:02.771Z,17.13
2018-07-07T01:14:31.951Z,15.63
2018-07-07T01:17:00.905Z,16.33
2018-07-07T01:19:30.309Z,16.70
2018-07-07T01:21:58.909Z,16.13
2018-07-07T01:24:27.637Z,17.47
2018-07-07T01:26:56.961Z,18.77
2018-07-07T01:29:25.781Z,18.50
2018-07-07T01:31:54.202Z,18.67
2018-07-07T01:34:22.853Z,22.87
2018-07-07T01:36:51.496Z,18.83
2018-07-07T01:39:20.854Z,19.90
2018-07-07T01:41:49.270Z,20.37
2018-07-07T01:44:17.901Z,20.80
2018-07-07T01:46:46.685Z,21.87
2018-07-07T01:49:15.119Z,26.33
2018-07-07T01:51:44.512Z,22.77
2018-07-07T01:54:12.976Z,23.43
2018-07-07T01:56:42.082Z,28.60
2018-07-07T01:59:11.995Z,24.87
2018-07-07T02:01:40.420Z,24.40
2018-07-07T02:04:09.412Z,23.83
2018-07-07T02:06:37.813Z,24.83
2018-07-07T02:09:06.024Z,23.90
2018-07-07T02:11:36.228Z,25.63
2018-07-07T02:14:04.667Z,25.90
2018-07-07T02:16:33.169Z,26.70
2018-07-07T02:19:01.683Z,26.30
2018-07-07T02:21:30.970Z,26.20
2018-07-07T02:23:59.759Z,26.87
2018-07-07T02:26:28.740Z,26.63
2018-07-07T02:28:57.556Z,26.50
2018-07-07T02:31:26.386Z,28.10
2018-07-07T02:33:55.953Z,27.60
2018-07-07T02:36:24.583Z,29.03
2018-07-07T02:38:53.155Z,27.83
2018-07-07T02:41:22.838Z,28.30
2018-07-07T02:43:51.341Z,33.80
2018-07-07T02:46:19.901Z,28.67
2018-07-07T02:48:48.616Z,27.03
2018-07-07T02:51:17.364Z,27.97
2018-07-07T02:53:46.053Z,28.03
2018-07-07T02:56:15.414Z,28.03
2018-07-07T02:58:44.448Z,26.63
2018-07-07T03:01:13.062Z,28.50
2018-07-07T03:03:41.543Z,26.53
2018-07-07T03:06:10.394Z,27.07
2018-07-07T03:08:39.958Z,27.80
2018-07-07T03:11:08.633Z,27.73
2018-07-07T03:13:37.045Z,28.63
2018-07-07T03:16:05.157Z,28.30
2018-07-07T03:18:34.003Z,29.17
2018-07-07T03:21:03.716Z,29.00
2018-07-07T03:23:32.327Z,28.70
2018-07-07T03:26:00.808Z,26.67
2018-07-07T03:28:29.735Z,28.70
2018-07-07T03:30:58.317Z,28.20
2018-07-07T03:33:27.313Z,27.00
2018-07-07T03:35:56.147Z,29.20
2018-07-07T03:38:25.944Z,27.90
2018-07-07T03:40:54.801Z,27.53
2018-07-07T03:43:23.270Z,32.77
2018-07-07T03:45:52.204Z,27.40
2018-07-07T03:48:20.714Z,26.87
2018-07-07T03:50:49.176Z,27.83
2018-07-07T03:53:17.955Z,25.67
2018-07-07T03:55:46.998Z,25.67
2018-07-07T03:58:16.484Z,23.60
2018-07-07T04:00:45.450Z,24.40
2018-07-07T04:03:14.985Z,25.13
2018-07-07T04:05:43.400Z,29.03
2018-07-07T04:08:12.669Z,22.87
2018-07-07T04:10:41.085Z,23.80
2018-07-07T04:13:09.495Z,27.67
2018-07-07T04:15:38.929Z,21.57
2018-07-07T04:18:07.684Z,20.80
2018-07-07T04:20:36.109Z,20.20
2018-07-07T04:23:04.966Z,20.93
2018-07-07T04:25:34.924Z,20.10
2018-07-07T04:28:04.003Z,20.57
2018-07-07T04:30:33.728Z,19.90
2018-07-07T04:33:02.335Z,20.80
2018-07-07T04:35:30.769Z,25.87
2018-07-07T04:38:00.702Z,21.77
2018-07-07T04:40:29.387Z,20.97
2018-07-07T04:42:58.095Z,19.80
2018-07-07T04:45:26.967Z,19.33
2018-07-07T04:47:55.382Z,17.87
2018-07-07T04:50:24.242Z,18.67
2018-07-07T04:52:53.147Z,16.77
2018-07-07T04:55:21.657Z,17.20
2018-07-07T04:57:50.245Z,16.67
2018-07-07T05:00:18.953Z,16.87
2018-07-07T05:02:47.630Z,17.33
2018-07-07T05:05:16.141Z,16.87
2018-07-07T05:07:44.735Z,16.53
2018-07-07T05:10:13.440Z,20.70
2018-07-07T05:12:42.431Z,16.37
2018-07-07T05:15:10.866Z,16.00
2018-07-07T05:17:40.031Z,15.00
2018-07-07T05:20:08.461Z,15.17
2018-07-07T05:22:37.553Z,15.07
2018-07-07T05:25:06.093Z,19.10
2018-07-07T05:27:34.487Z,13.73
2018-07-07T05:30:03.477Z,14.77
2018-07-07T05:32:32.161Z,14.53
2018-07-07T05:35:01.038Z,14.00
2018-07-07T05:37:29.884Z,17.97
2018-07-07T05:39:58.590Z,13.70
2018-07-07T05:42:27.463Z,13.53
2018-07-07T05:44:56.215Z,18.00
2018-07-07T05:47:25.495Z,14.23
2018-07-07T05:49:53.946Z,13.07
2018-07-07T05:52:22.574Z,13.47
2018-07-07T05:54:50.990Z,12.53
2018-07-07T05:57:20.929Z,10.60
2018-07-07T05:59:49.387Z,10.20
2018-07-07T06:02:18.341Z,9.83
2018-07-07T06:04:47.126Z,10.30
2018-07-07T06:07:16.958Z,11.00
2018-07-07T06:09:45.596Z,10.83
2018-07-07T06:12:14.217Z,8.03
2018-07-07T06:14:43.238Z,9.67
2018-07-07T06:17:12.041Z,8.30
2018-07-07T06:19:40.524Z,9.03
2018-07-07T06:22:10.298Z,8.70
2018-07-07T06:24:38.931Z,7.57
2018-07-07T06:27:07.398Z,8.50
2018-07-07T06:29:35.876Z,8.10
2018-07-07T06:32:04.707Z,7.10
2018-07-07T06:34:33.716Z,7.20
2018-07-07T06:37:02.872Z,7.50
2018-07-07T06:39:31.695Z,7.13
2018-07-07T06:42:00.294Z,6.73
2018-07-07T06:44:28.931Z,6.67
2018-07-07T06:46:57.377Z,5.63
2018-07-07T06:49:27.006Z,6.00
2018-07-07T06:51:55.958Z,5.83
2018-07-07T06:54:24.651Z,6.33
2018-07-07T06:56:53.097Z,6.40
2018-07-07T06:59:21.609Z,5.93
2018-07-07T07:01:50.249Z,6.20
2018-07-07T07:04:18.757Z,6.27
2018-07-07T07:06:47.726Z,5.53
2018-07-07T07:09:16.491Z,5.80
2018-07-07T07:11:46.738Z,5.90
2018-07-07T07:14:15.915Z,5.93
2018-07-07T07:16:44.389Z,5.40
2018-07-07T07:19:13.387Z,5.37
2018-07-07T07:21:42.759Z,5.08
2018-07-07T07:24:11.336Z,5.10
2018-07-07T07:26:40.168Z,5.00
2018-07-07T07:29:09.785Z,5.60
2018-07-07T07:31:38.795Z,5.20
2018-07-07T07:34:07.753Z,5.13
2018-07-07T07:36:42.348Z,5.47
2018-07-07T07:39:11.095Z,5.17
2018-07-07T07:41:39.797Z,4.87
2018-07-07T07:44:09.006Z,4.30
2018-07-07T07:46:37.706Z,3.93
2018-07-07T07:49:06.550Z,3.70
2018-07-07T07:51:35.174Z,3.70
2018-07-07T07:54:03.917Z,3.87
2018-07-07T07:56:32.807Z,3.73
2018-07-07T07:59:01.272Z,3.60
2018-07-07T08:01:30.814Z,3.40
2018-07-07T08:03:59.567Z,3.80
2018-07-07T08:06:28.229Z,3.57
2018-07-07T08:08:57.793Z,3.87
2018-07-07T08:11:26.540Z,3.80
2018-07-07T08:13:55.524Z,3.47
2018-07-07T08:16:23.941Z,3.67
2018-07-07T08:18:52.428Z,3.50
2018-07-07T08:21:20.933Z,3.60
2018-07-07T08:23:49.385Z,4.03
2018-07-07T08:26:17.869Z,3.60
2018-07-07T08:28:46.400Z,3.15
2018-07-07T08:31:15.584Z,3.50
2018-07-07T08:33:44.415Z,3.62
2018-07-07T08:36:12.941Z,3.10
2018-07-07T08:38:42.004Z,3.08
2018-07-07T08:41:14.653Z,3.65
2018-07-07T08:43:43.786Z,3.50
2018-07-07T08:46:12.351Z,3.45
2018-07-07T08:48:41.221Z,3.67
2018-07-07T08:51:09.812Z,3.58
2018-07-07T08:53:38.808Z,3.55
2018-07-07T08:56:08.648Z,3.67
2018-07-07T08:58:37.095Z,3.60
2018-07-07T09:01:06.282Z,3.67
2018-07-07T09:03:35.428Z,3.77
2018-07-07T09:06:03.955Z,3.42
2018-07-07T09:08:34.276Z,3.80
2018-07-07T09:11:03.165Z,4.35
2018-07-07T09:13:32.312Z,3.75
2018-07-07T09:16:02.853Z,3.35
2018-07-07T09:18:31.625Z,3.67
2018-07-07T09:21:00.526Z,3.60
2018-07-07T09:23:29.148Z,4.05
2018-07-07T09:25:58.823Z,3.90
2018-07-07T09:28:27.252Z,3.15
2018-07-07T09:30:55.879Z,3.60
2018-07-07T09:33:24.952Z,3.47
2018-07-07T09:35:53.659Z,3.27
2018-07-07T09:38:23.133Z,3.10
2018-07-07T09:40:52.016Z,3.37
2018-07-07T09:43:20.728Z,3.27
2018-07-07T09:45:49.351Z,3.30
2018-07-07T09:48:18.003Z,3.10
2018-07-07T09:50:46.368Z,3.07
2018-07-07T09:53:16.751Z,2.77
2018-07-07T09:55:45.163Z,3.00
2018-07-07T09:58:14.094Z,3.37
2018-07-07T10:00:43.481Z,3.13
2018-07-07T10:03:14.280Z,3.07
2018-07-07T10:05:42.881Z,3.03
2018-07-07T10:08:12.656Z,3.10
2018-07-07T10:10:41.472Z,3.40
2018-07-07T11:00:05.964Z,3.10
2018-07-07T11:02:34.444Z,2.60
2018-07-07T11:05:02.968Z,2.70
2018-07-07T11:07:31.887Z,2.73
2018-07-07T11:10:00.285Z,2.53
2018-07-07T11:12:29.204Z,3.07
2018-07-07T11:14:58.638Z,2.77
2018-07-07T11:17:27.600Z,2.53
2018-07-07T11:19:56.833Z,2.40
2018-07-07T11:22:26.343Z,2.67
2018-07-07T11:24:55.514Z,2.57
2018-07-07T11:27:24.148Z,2.50
2018-07-07T11:29:52.636Z,2.47
2018-07-07T11:32:21.302Z,2.50
2018-07-07T11:34:50.773Z,2.73
2018-07-07T11:37:19.737Z,2.53
2018-07-07T11:39:48.217Z,2.83
2018-07-07T11:42:17.458Z,3.07
2018-07-07T11:44:45.978Z,2.63
2018-07-07T11:47:14.856Z,3.00
2018-07-07T11:49:44.959Z,3.03
2018-07-07T11:52:13.813Z,2.80
2018-07-07T11:54:42.818Z,2.80
2018-07-07T11:57:11.705Z,2.80
2018-07-07T11:59:40.340Z,2.47
2018-07-07T12:02:09.094Z,2.57
2018-07-07T12:04:37.792Z,2.67
2018-07-07T12:07:06.328Z,2.43
2018-07-07T12:09:34.763Z,2.33
2018-07-07T12:12:03.266Z,2.30
2018-07-07T12:14:32.235Z,2.83
2018-07-07T12:17:00.874Z,2.60
2018-07-07T12:19:30.225Z,2.50
2018-07-07T12:21:59.521Z,2.70
2018-07-07T12:24:28.805Z,3.17
2018-07-07T12:26:57.543Z,3.00
2018-07-07T12:29:27.207Z,3.20
2018-07-07T12:31:55.688Z,2.73
2018-07-07T12:34:24.413Z,3.20
2018-07-07T12:36:54.673Z,3.47
2018-07-07T12:39:23.722Z,2.80
2018-07-07T12:41:54.215Z,2.90
2018-07-07T12:44:22.866Z,3.10
2018-07-07T12:46:51.805Z,3.00
2018-07-07T12:49:20.844Z,3.20
2018-07-07T12:51:49.287Z,2.90
2018-07-07T12:54:18.864Z,3.30
2018-07-07T12:56:47.441Z,4.33
2018-07-07T12:59:16.778Z,3.60
2018-07-07T13:01:45.851Z,3.13
2018-07-07T13:04:15.667Z,2.90
2018-07-07T13:06:45.951Z,3.23
2018-07-07T13:09:15.163Z,3.80
2018-07-07T13:11:43.580Z,3.87
2018-07-07T13:14:12.133Z,3.93
2018-07-07T13:16:41.788Z,3.60
2018-07-07T13:19:11.272Z,3.23
2018-07-07T13:21:40.530Z,3.27
2018-07-07T13:24:10.092Z,3.03
2018-07-07T13:26:38.539Z,3.10
2018-07-07T13:29:06.730Z,3.00
2018-07-07T13:31:35.756Z,3.00
2018-07-07T13:34:04.538Z,3.07
2018-07-07T13:36:33.473Z,2.90
2018-07-07T13:39:02.817Z,2.70
2018-07-07T13:41:31.378Z,3.30
2018-07-07T13:43:59.911Z,3.13
2018-07-07T13:46:29.864Z,3.53
2018-07-07T13:48:58.525Z,3.20
2018-07-07T13:51:27.063Z,3.60
2018-07-07T13:53:55.573Z,2.73
2018-07-07T13:56:24.241Z,2.60
2018-07-07T13:58:52.826Z,2.80
2018-07-07T14:01:21.243Z,2.60
2018-07-07T14:03:50.136Z,2.90
2018-07-07T14:06:18.960Z,2.73
2018-07-07T14:08:47.393Z,3.00
2018-07-07T14:11:16.249Z,2.40
2018-07-07T14:13:44.715Z,2.87
2018-07-07T14:16:13.361Z,2.70
2018-07-07T14:18:42.240Z,2.90
2018-07-07T14:21:10.756Z,2.80
2018-07-07T14:23:39.302Z,2.40
2018-07-07T14:26:07.792Z,2.83
2018-07-07T14:28:36.547Z,2.80
2018-07-07T14:31:04.995Z,2.60
2018-07-07T14:33:34.124Z,2.43
2018-07-07T14:36:02.563Z,2.97
2018-07-07T14:38:35.945Z,3.37
2018-07-07T14:41:17.951Z,2.80
2018-07-07T14:43:52.761Z,2.87
2018-07-07T14:46:21.981Z,2.77
2018-07-07T14:48:50.661Z,2.53
2018-07-07T14:51:20.008Z,2.90
2018-07-07T14:53:48.480Z,2.53
2018-07-07T14:56:18.767Z,2.70
2018-07-07T14:58:47.329Z,2.90
2018-07-07T15:01:15.971Z,2.60
2018-07-07T15:03:44.783Z,2.37
2018-07-07T15:06:13.356Z,2.63
2018-07-07T15:08:41.797Z,2.70
2018-07-07T15:11:10.868Z,2.70
2018-07-07T15:13:39.413Z,3.33
2018-07-07T15:16:07.857Z,2.40
2018-07-07T15:18:37.566Z,2.70
2018-07-07T15:21:06.116Z,3.10
2018-07-07T15:23:34.539Z,2.77
2018-07-07T15:26:03.058Z,2.63
2018-07-07T15:28:31.543Z,2.60
2018-07-07T15:31:00.214Z,3.40
2018-07-07T15:33:29.410Z,2.90
2018-07-07T15:35:57.928Z,2.90
2018-07-07T15:38:26.500Z,2.97
2018-07-07T15:40:55.843Z,2.80
2018-07-07T15:43:24.264Z,2.67
2018-07-07T15:45:52.999Z,3.10
2018-07-07T15:48:23.541Z,3.20
2018-07-07T15:50:51.989Z,2.70
2018-07-07T15:53:21.215Z,2.80
2018-07-07T15:55:50.253Z,2.60
2018-07-07T15:58:19.507Z,2.70
2018-07-07T16:00:48.296Z,2.53
2018-07-07T16:03:16.925Z,2.83
2018-07-07T16:05:45.529Z,2.87
2018-07-07T16:08:13.918Z,2.30
2018-07-07T16:10:42.828Z,2.60
2018-07-07T16:13:11.386Z,2.40
2018-07-07T16:15:40.393Z,2.50
2018-07-07T16:18:09.492Z,2.63
2018-07-07T16:20:37.934Z,2.50
2018-07-07T16:23:06.388Z,2.50
2018-07-07T16:25:35.814Z,2.70
2018-07-07T16:28:04.338Z,2.50
2018-07-07T16:30:33.158Z,2.60
2018-07-07T16:33:01.665Z,2.70
2018-07-07T16:35:30.091Z,2.70
2018-07-07T16:37:58.652Z,2.67
2018-07-07T16:40:27.397Z,2.50
2018-07-07T16:42:56.140Z,2.83
2018-07-07T16:45:24.764Z,2.60
2018-07-07T16:47:53.285Z,2.60
2018-07-07T16:50:22.375Z,2.60
2018-07-07T16:52:51.068Z,2.83
2018-07-07T16:55:20.076Z,2.60
2018-07-07T16:57:48.586Z,2.83
2018-07-07T17:00:17.709Z,2.70
2018-07-07T17:02:46.096Z,2.63
2018-07-07T17:05:14.589Z,3.07
2018-07-07T17:07:43.217Z,3.03
2018-07-07T17:10:11.700Z,3.07
2018-07-07T17:12:40.677Z,3.23
2018-07-07T17:15:09.109Z,2.63
2018-07-07T17:17:37.624Z,3.13
2018-07-07T17:20:06.097Z,3.00
2018-07-07T17:22:34.603Z,2.83
2018-07-07T17:25:03.508Z,2.90
2018-07-07T17:27:32.451Z,3.10
2018-07-07T17:30:01.045Z,2.90
2018-07-07T17:32:30.437Z,2.97
2018-07-07T17:34:58.967Z,3.00
2018-07-07T17:37:27.388Z,3.00
2018-07-07T17:39:56.247Z,2.63
2018-07-07T17:42:25.459Z,2.80
2018-07-07T17:44:54.354Z,2.70
2018-07-07T17:47:22.877Z,3.30
2018-07-07T17:49:51.598Z,2.70
2018-07-07T17:52:20.673Z,3.07
2018-07-07T17:54:49.462Z,2.93
2018-07-07T17:57:18.755Z,3.03
2018-07-07T17:59:47.370Z,2.60
2018-07-07T18:02:16.160Z,3.17
2018-07-07T18:04:45.538Z,3.03
2018-07-07T18:07:13.967Z,3.20
2018-07-07T18:09:42.708Z,3.23
2018-07-07T18:12:13.109Z,3.10
2018-07-07T18:14:42.064Z,3.47
2018-07-07T18:17:11.081Z,3.13
2018-07-07T18:19:40.000Z,3.27
2018-07-07T18:22:08.561Z,2.97
2018-07-07T18:24:37.494Z,2.93
2018-07-07T18:27:05.965Z,3.00
2018-07-07T18:29:34.596Z,2.90
2018-07-07T18:32:03.069Z,3.17
2018-07-07T18:34:32.745Z,3.23
2018-07-07T18:37:01.269Z,3.17
2018-07-07T18:39:29.905Z,2.73
2018-07-07T18:41:58.428Z,3.00
2018-07-07T18:44:26.880Z,3.20
2018-07-07T18:46:55.841Z,3.47
2018-07-07T18:49:24.088Z,3.20
2018-07-07T18:51:53.911Z,3.50
2018-07-07T18:54:22.342Z,4.00
2018-07-07T18:56:51.416Z,3.60
2018-07-07T18:59:20.284Z,3.60
2018-07-07T19:01:49.210Z,4.60
2018-07-07T19:04:17.634Z,5.10
2018-07-07T19:06:46.130Z,5.20
2018-07-07T19:09:14.924Z,5.73
2018-07-07T19:11:44.070Z,4.93
2018-07-07T19:14:12.757Z,4.97
2018-07-07T19:16:41.815Z,4.50
2018-07-07T19:19:10.627Z,4.80
2018-07-07T19:21:44.716Z,4.67
2018-07-07T19:24:18.664Z,4.50
2018-07-07T19:26:50.676Z,4.47
2018-07-07T19:29:19.890Z,4.60
2018-07-07T19:31:54.222Z,4.87
2018-07-07T19:34:27.838Z,5.07
2018-07-07T19:37:02.052Z,4.93
2018-07-07T19:39:31.175Z,4.90
2018-07-07T19:41:59.772Z,5.53
2018-07-07T19:44:28.275Z,5.40
2018-07-07T19:46:56.749Z,5.00
2018-07-07T19:49:25.229Z,4.47
2018-07-07T19:51:53.922Z,5.30
2018-07-07T19:54:22.830Z,4.60
2018-07-07T19:56:51.471Z,4.73
2018-07-07T19:59:20.011Z,5.27
2018-07-07T20:01:49.005Z,5.33
2018-07-07T20:04:17.529Z,5.70
2018-07-07T20:06:46.113Z,6.20
2018-07-07T20:09:15.047Z,6.37
2018-07-07T20:11:43.924Z,5.97
2018-07-07T20:14:16.698Z,5.60
2018-07-07T20:16:56.885Z,5.30
2018-07-07T20:19:26.509Z,5.30
2018-07-07T20:21:59.359Z,5.60
2018-07-07T20:24:30.017Z,5.90
2018-07-07T20:27:04.745Z,4.80
2018-07-07T20:29:33.707Z,4.80
2018-07-07T20:32:02.825Z,4.80
2018-07-07T20:34:32.186Z,5.20
2018-07-07T20:37:00.782Z,4.67
2018-07-07T20:39:29.176Z,5.40
2018-07-07T20:41:58.046Z,4.77
2018-07-07T20:44:26.952Z,4.57
2018-07-07T20:46:55.466Z,5.00
2018-07-07T20:49:24.423Z,4.90
2018-07-07T20:51:53.099Z,4.60
2018-07-07T20:54:21.281Z,4.40
2018-07-07T20:56:50.394Z,4.60
2018-07-07T20:59:19.500Z,5.00
2018-07-07T21:01:48.300Z,5.10
2018-07-07T21:04:17.090Z,5.20
2018-07-07T21:06:46.217Z,4.70
2018-07-07T21:09:15.920Z,5.07
2018-07-07T21:11:44.567Z,4.70
2018-07-07T21:14:13.565Z,5.20
2018-07-07T21:16:42.158Z,5.23
2018-07-07T21:19:10.874Z,5.20
2018-07-07T21:21:39.454Z,5.87
2018-07-07T21:24:08.187Z,5.23
2018-07-07T21:26:36.833Z,5.73
2018-07-07T21:29:05.615Z,6.00
2018-07-07T21:31:34.048Z,5.93
2018-07-07T21:34:03.327Z,7.73
2018-07-07T21:36:31.821Z,5.60
2018-07-07T21:39:00.430Z,5.50
2018-07-07T21:41:29.174Z,5.90
2018-07-07T21:43:57.830Z,6.20
2018-07-07T21:46:26.328Z,5.63
2018-07-07T21:48:54.620Z,5.77
2018-07-07T21:51:23.055Z,6.07
2018-07-07T21:53:52.181Z,5.87
